sensor_id;sensor_type;location;lat;lon;timestamp;P1;durP1;ratioP1;P2;durP2;ratioP2
18445;SDS011;9352;50.888;4.466;2023-07-13T00:00:41;7.95;;;2.10;;
18445;SDS011;9352;50.888;4.466;2023-07-13T00:03:08;7.50;;;2.40;;
18445;SDS011;9352;50.888;4.466;2023-07-13T00:05:38;12.75;;;2.35;;
18445;SDS011;9352;50.888;4.466;2023-07-13T00:08:06;10.38;;;2.45;;
18445;SDS011;9352;50.888;4.466;2023-07-13T00:10:33;8.80;;;2.28;;
18445;SDS011;9352;50.888;4.466;2023-07-13T00:13:01;10.13;;;2.10;;
18445;SDS011;9352;50.888;4.466;2023-07-13T00:15:28;6.40;;;2.20;;
18445;SDS011;9352;50.888;4.466;2023-07-13T00:17:56;9.02;;;1.90;;
18445;SDS011;9352;50.888;4.466;2023-07-13T00:20:26;11.52;;;2.65;;
18445;SDS011;9352;50.888;4.466;2023-07-13T00:22:53;9.05;;;2.58;;
18445;SDS011;9352;50.888;4.466;2023-07-13T00:25:20;9.32;;;2.25;;
18445;SDS011;9352;50.888;4.466;2023-07-13T00:27:49;13.70;;;2.30;;
18445;SDS011;9352;50.888;4.466;2023-07-13T00:30:17;8.50;;;2.28;;
18445;SDS011;9352;50.888;4.466;2023-07-13T00:32:44;10.48;;;2.47;;
18445;SDS011;9352;50.888;4.466;2023-07-13T00:35:12;6.13;;;2.40;;
18445;SDS011;9352;50.888;4.466;2023-07-13T00:37:40;7.60;;;2.30;;
18445;SDS011;9352;50.888;4.466;2023-07-13T00:40:08;8.57;;;2.10;;
18445;SDS011;9352;50.888;4.466;2023-07-13T00:42:36;10.82;;;1.90;;
18445;SDS011;9352;50.888;4.466;2023-07-13T00:45:04;9.88;;;2.15;;
18445;SDS011;9352;50.888;4.466;2023-07-13T00:47:34;11.88;;;2.40;;
18445;SDS011;9352;50.888;4.466;2023-07-13T00:50:01;9.27;;;2.63;;
18445;SDS011;9352;50.888;4.466;2023-07-13T00:52:29;12.82;;;2.20;;
18445;SDS011;9352;50.888;4.466;2023-07-13T00:54:57;11.05;;;2.45;;
18445;SDS011;9352;50.888;4.466;2023-07-13T00:57:24;13.52;;;3.22;;
18445;SDS011;9352;50.888;4.466;2023-07-13T00:59:55;9.05;;;2.08;;
18445;SDS011;9352;50.888;4.466;2023-07-13T01:02:23;10.32;;;2.38;;
18445;SDS011;9352;50.888;4.466;2023-07-13T01:04:52;11.27;;;2.60;;
18445;SDS011;9352;50.888;4.466;2023-07-13T01:07:20;6.00;;;2.33;;
18445;SDS011;9352;50.888;4.466;2023-07-13T01:09:47;11.02;;;2.80;;
18445;SDS011;9352;50.888;4.466;2023-07-13T01:12:14;9.95;;;2.25;;
18445;SDS011;9352;50.888;4.466;2023-07-13T01:14:41;13.73;;;2.80;;
18445;SDS011;9352;50.888;4.466;2023-07-13T01:17:08;5.55;;;2.30;;
18445;SDS011;9352;50.888;4.466;2023-07-13T01:19:37;6.35;;;1.95;;
18445;SDS011;9352;50.888;4.466;2023-07-13T01:22:08;10.07;;;2.42;;
18445;SDS011;9352;50.888;4.466;2023-07-13T01:24:36;11.35;;;2.60;;
18445;SDS011;9352;50.888;4.466;2023-07-13T01:27:05;10.45;;;2.40;;
18445;SDS011;9352;50.888;4.466;2023-07-13T01:29:33;7.50;;;2.40;;
18445;SDS011;9352;50.888;4.466;2023-07-13T01:32:07;9.40;;;2.35;;
18445;SDS011;9352;50.888;4.466;2023-07-13T01:34:35;11.52;;;2.20;;
18445;SDS011;9352;50.888;4.466;2023-07-13T01:37:03;6.85;;;2.15;;
18445;SDS011;9352;50.888;4.466;2023-07-13T01:39:32;10.50;;;3.08;;
18445;SDS011;9352;50.888;4.466;2023-07-13T01:41:59;10.23;;;2.85;;
18445;SDS011;9352;50.888;4.466;2023-07-13T01:44:26;17.77;;;2.80;;
18445;SDS011;9352;50.888;4.466;2023-07-13T01:46:53;12.05;;;2.60;;
18445;SDS011;9352;50.888;4.466;2023-07-13T01:49:20;10.40;;;2.55;;
18445;SDS011;9352;50.888;4.466;2023-07-13T01:51:47;10.68;;;2.40;;
18445;SDS011;9352;50.888;4.466;2023-07-13T01:54:13;11.70;;;2.30;;
18445;SDS011;9352;50.888;4.466;2023-07-13T01:56:42;8.20;;;2.35;;
18445;SDS011;9352;50.888;4.466;2023-07-13T01:59:09;15.02;;;3.22;;
18445;SDS011;9352;50.888;4.466;2023-07-13T02:01:36;15.73;;;2.60;;
18445;SDS011;9352;50.888;4.466;2023-07-13T02:04:03;12.30;;;2.47;;
18445;SDS011;9352;50.888;4.466;2023-07-13T02:06:30;16.80;;;2.80;;
18445;SDS011;9352;50.888;4.466;2023-07-13T02:08:57;11.65;;;2.38;;
18445;SDS011;9352;50.888;4.466;2023-07-13T02:11:24;12.02;;;2.30;;
18445;SDS011;9352;50.888;4.466;2023-07-13T02:13:58;10.35;;;2.80;;
18445;SDS011;9352;50.888;4.466;2023-07-13T02:16:26;9.88;;;2.50;;
18445;SDS011;9352;50.888;4.466;2023-07-13T02:18:52;9.38;;;2.78;;
18445;SDS011;9352;50.888;4.466;2023-07-13T02:21:20;10.95;;;2.80;;
18445;SDS011;9352;50.888;4.466;2023-07-13T02:23:48;11.60;;;2.58;;
18445;SDS011;9352;50.888;4.466;2023-07-13T02:26:15;10.23;;;2.83;;
18445;SDS011;9352;50.888;4.466;2023-07-13T02:28:42;15.75;;;2.50;;
18445;SDS011;9352;50.888;4.466;2023-07-13T02:31:11;15.35;;;3.25;;
18445;SDS011;9352;50.888;4.466;2023-07-13T02:33:40;12.15;;;2.95;;
18445;SDS011;9352;50.888;4.466;2023-07-13T02:36:07;11.23;;;3.22;;
18445;SDS011;9352;50.888;4.466;2023-07-13T02:38:34;10.52;;;2.65;;
18445;SDS011;9352;50.888;4.466;2023-07-13T02:41:02;13.32;;;2.75;;
18445;SDS011;9352;50.888;4.466;2023-07-13T02:43:29;7.32;;;2.70;;
18445;SDS011;9352;50.888;4.466;2023-07-13T02:45:55;15.35;;;2.72;;
18445;SDS011;9352;50.888;4.466;2023-07-13T02:48:27;18.77;;;2.70;;
18445;SDS011;9352;50.888;4.466;2023-07-13T02:50:53;11.23;;;2.53;;
18445;SDS011;9352;50.888;4.466;2023-07-13T02:53:20;8.60;;;2.85;;
18445;SDS011;9352;50.888;4.466;2023-07-13T02:55:47;12.52;;;3.00;;
18445;SDS011;9352;50.888;4.466;2023-07-13T02:58:14;10.05;;;2.88;;
18445;SDS011;9352;50.888;4.466;2023-07-13T03:00:41;10.15;;;2.85;;
18445;SDS011;9352;50.888;4.466;2023-07-13T03:03:09;12.32;;;2.63;;
18445;SDS011;9352;50.888;4.466;2023-07-13T03:05:40;14.75;;;2.85;;
18445;SDS011;9352;50.888;4.466;2023-07-13T03:08:08;11.10;;;2.90;;
18445;SDS011;9352;50.888;4.466;2023-07-13T03:10:35;10.95;;;3.28;;
18445;SDS011;9352;50.888;4.466;2023-07-13T03:13:02;13.27;;;3.10;;
18445;SDS011;9352;50.888;4.466;2023-07-13T03:15:29;18.13;;;3.50;;
18445;SDS011;9352;50.888;4.466;2023-07-13T03:17:56;12.18;;;3.40;;
18445;SDS011;9352;50.888;4.466;2023-07-13T03:20:23;17.90;;;3.13;;
18445;SDS011;9352;50.888;4.466;2023-07-13T03:22:51;15.63;;;3.10;;
18445;SDS011;9352;50.888;4.466;2023-07-13T03:25:18;19.52;;;3.10;;
18445;SDS011;9352;50.888;4.466;2023-07-13T03:27:45;12.70;;;2.72;;
18445;SDS011;9352;50.888;4.466;2023-07-13T03:30:12;18.05;;;3.17;;
18445;SDS011;9352;50.888;4.466;2023-07-13T03:32:39;14.23;;;3.00;;
18445;SDS011;9352;50.888;4.466;2023-07-13T03:35:06;12.82;;;3.25;;
18445;SDS011;9352;50.888;4.466;2023-07-13T03:37:34;11.30;;;2.58;;
18445;SDS011;9352;50.888;4.466;2023-07-13T03:40:06;19.77;;;3.10;;
18445;SDS011;9352;50.888;4.466;2023-07-13T03:42:34;11.15;;;2.78;;
18445;SDS011;9352;50.888;4.466;2023-07-13T03:45:01;13.98;;;3.03;;
18445;SDS011;9352;50.888;4.466;2023-07-13T03:47:28;17.08;;;3.78;;
18445;SDS011;9352;50.888;4.466;2023-07-13T03:49:55;11.43;;;3.08;;
18445;SDS011;9352;50.888;4.466;2023-07-13T03:52:22;12.93;;;2.95;;
18445;SDS011;9352;50.888;4.466;2023-07-13T03:54:49;16.65;;;3.67;;
18445;SDS011;9352;50.888;4.466;2023-07-13T03:57:17;11.77;;;2.72;;
18445;SDS011;9352;50.888;4.466;2023-07-13T03:59:44;16.55;;;3.17;;
18445;SDS011;9352;50.888;4.466;2023-07-13T04:02:11;13.23;;;3.00;;
18445;SDS011;9352;50.888;4.466;2023-07-13T04:04:38;9.93;;;2.70;;
18445;SDS011;9352;50.888;4.466;2023-07-13T04:07:06;13.35;;;3.22;;
18445;SDS011;9352;50.888;4.466;2023-07-13T04:09:34;14.63;;;2.97;;
18445;SDS011;9352;50.888;4.466;2023-07-13T04:12:01;12.55;;;3.30;;
18445;SDS011;9352;50.888;4.466;2023-07-13T04:14:30;18.48;;;3.20;;
18445;SDS011;9352;50.888;4.466;2023-07-13T04:16:57;15.93;;;3.17;;
18445;SDS011;9352;50.888;4.466;2023-07-13T04:19:24;14.10;;;2.97;;
18445;SDS011;9352;50.888;4.466;2023-07-13T04:21:50;11.77;;;2.97;;
18445;SDS011;9352;50.888;4.466;2023-07-13T04:24:17;12.00;;;3.25;;
18445;SDS011;9352;50.888;4.466;2023-07-13T04:26:44;19.70;;;4.05;;
18445;SDS011;9352;50.888;4.466;2023-07-13T04:29:11;21.98;;;3.50;;
18445;SDS011;9352;50.888;4.466;2023-07-13T04:31:39;23.77;;;3.85;;
18445;SDS011;9352;50.888;4.466;2023-07-13T04:34:06;20.20;;;3.40;;
18445;SDS011;9352;50.888;4.466;2023-07-13T04:36:33;15.32;;;3.30;;
18445;SDS011;9352;50.888;4.466;2023-07-13T04:39:02;21.23;;;5.40;;
18445;SDS011;9352;50.888;4.466;2023-07-13T04:41:29;17.35;;;3.53;;
18445;SDS011;9352;50.888;4.466;2023-07-13T04:43:56;17.45;;;3.40;;
18445;SDS011;9352;50.888;4.466;2023-07-13T04:46:23;22.52;;;3.83;;
18445;SDS011;9352;50.888;4.466;2023-07-13T04:48:51;16.30;;;3.88;;
18445;SDS011;9352;50.888;4.466;2023-07-13T04:51:19;17.42;;;3.78;;
18445;SDS011;9352;50.888;4.466;2023-07-13T04:53:46;21.10;;;3.60;;
18445;SDS011;9352;50.888;4.466;2023-07-13T04:56:13;18.58;;;3.40;;
18445;SDS011;9352;50.888;4.466;2023-07-13T04:58:39;21.88;;;4.15;;
18445;SDS011;9352;50.888;4.466;2023-07-13T05:01:06;16.33;;;3.47;;
18445;SDS011;9352;50.888;4.466;2023-07-13T05:03:34;19.80;;;3.65;;
18445;SDS011;9352;50.888;4.466;2023-07-13T05:06:03;19.95;;;4.03;;
18445;SDS011;9352;50.888;4.466;2023-07-13T05:08:32;12.60;;;3.25;;
18445;SDS011;9352;50.888;4.466;2023-07-13T05:10:59;12.95;;;3.47;;
18445;SDS011;9352;50.888;4.466;2023-07-13T05:13:26;18.92;;;3.13;;
18445;SDS011;9352;50.888;4.466;2023-07-13T05:15:57;14.60;;;3.33;;
18445;SDS011;9352;50.888;4.466;2023-07-13T05:18:25;17.55;;;3.33;;
18445;SDS011;9352;50.888;4.466;2023-07-13T05:20:58;15.48;;;3.88;;
18445;SDS011;9352;50.888;4.466;2023-07-13T05:23:28;13.63;;;3.50;;
18445;SDS011;9352;50.888;4.466;2023-07-13T05:25:55;17.77;;;3.17;;
18445;SDS011;9352;50.888;4.466;2023-07-13T05:28:22;20.00;;;3.92;;
18445;SDS011;9352;50.888;4.466;2023-07-13T05:30:49;11.27;;;3.75;;
18445;SDS011;9352;50.888;4.466;2023-07-13T05:33:17;17.88;;;3.30;;
18445;SDS011;9352;50.888;4.466;2023-07-13T05:35:44;24.17;;;4.53;;
18445;SDS011;9352;50.888;4.466;2023-07-13T05:38:10;14.00;;;3.55;;
18445;SDS011;9352;50.888;4.466;2023-07-13T05:40:39;18.85;;;3.92;;
18445;SDS011;9352;50.888;4.466;2023-07-13T05:43:08;17.50;;;3.50;;
18445;SDS011;9352;50.888;4.466;2023-07-13T05:45:35;13.80;;;3.47;;
18445;SDS011;9352;50.888;4.466;2023-07-13T05:48:02;15.95;;;3.25;;
18445;SDS011;9352;50.888;4.466;2023-07-13T05:50:29;17.85;;;3.83;;
18445;SDS011;9352;50.888;4.466;2023-07-13T05:52:55;17.45;;;4.00;;
18445;SDS011;9352;50.888;4.466;2023-07-13T05:55:22;15.45;;;3.80;;
18445;SDS011;9352;50.888;4.466;2023-07-13T05:57:51;26.05;;;4.13;;
18445;SDS011;9352;50.888;4.466;2023-07-13T06:00:18;15.90;;;3.35;;
18445;SDS011;9352;50.888;4.466;2023-07-13T06:02:45;27.15;;;3.75;;
18445;SDS011;9352;50.888;4.466;2023-07-13T06:05:12;24.80;;;4.35;;
18445;SDS011;9352;50.888;4.466;2023-07-13T06:07:40;16.45;;;3.55;;
18445;SDS011;9352;50.888;4.466;2023-07-13T06:10:08;22.67;;;3.85;;
18445;SDS011;9352;50.888;4.466;2023-07-13T06:12:35;18.38;;;3.42;;
18445;SDS011;9352;50.888;4.466;2023-07-13T06:15:04;15.20;;;3.72;;
18445;SDS011;9352;50.888;4.466;2023-07-13T06:17:32;20.15;;;3.42;;
18445;SDS011;9352;50.888;4.466;2023-07-13T06:19:58;16.83;;;3.65;;
18445;SDS011;9352;50.888;4.466;2023-07-13T06:22:25;12.90;;;3.50;;
18445;SDS011;9352;50.888;4.466;2023-07-13T06:24:52;22.83;;;4.05;;
18445;SDS011;9352;50.888;4.466;2023-07-13T06:27:19;15.35;;;3.38;;
18445;SDS011;9352;50.888;4.466;2023-07-13T06:29:46;15.52;;;4.22;;
18445;SDS011;9352;50.888;4.466;2023-07-13T06:32:14;23.50;;;3.90;;
18445;SDS011;9352;50.888;4.466;2023-07-13T06:34:41;18.13;;;3.42;;
18445;SDS011;9352;50.888;4.466;2023-07-13T06:37:08;16.52;;;3.60;;
18445;SDS011;9352;50.888;4.466;2023-07-13T06:39:36;15.13;;;3.72;;
18445;SDS011;9352;50.888;4.466;2023-07-13T06:42:03;14.10;;;3.47;;
18445;SDS011;9352;50.888;4.466;2023-07-13T06:44:30;14.95;;;3.65;;
18445;SDS011;9352;50.888;4.466;2023-07-13T06:46:57;23.65;;;4.13;;
18445;SDS011;9352;50.888;4.466;2023-07-13T06:49:25;21.38;;;3.67;;
18445;SDS011;9352;50.888;4.466;2023-07-13T06:51:52;15.35;;;3.85;;
18445;SDS011;9352;50.888;4.466;2023-07-13T06:54:19;17.08;;;3.40;;
18445;SDS011;9352;50.888;4.466;2023-07-13T06:56:46;17.23;;;3.75;;
18445;SDS011;9352;50.888;4.466;2023-07-13T06:59:13;18.80;;;3.70;;
18445;SDS011;9352;50.888;4.466;2023-07-13T07:01:40;19.05;;;3.42;;
18445;SDS011;9352;50.888;4.466;2023-07-13T07:04:06;18.02;;;3.75;;
18445;SDS011;9352;50.888;4.466;2023-07-13T07:06:35;19.05;;;3.28;;
18445;SDS011;9352;50.888;4.466;2023-07-13T07:09:02;16.98;;;3.55;;
18445;SDS011;9352;50.888;4.466;2023-07-13T07:11:29;19.13;;;4.25;;
18445;SDS011;9352;50.888;4.466;2023-07-13T07:13:56;19.60;;;4.13;;
18445;SDS011;9352;50.888;4.466;2023-07-13T07:16:24;16.92;;;4.18;;
18445;SDS011;9352;50.888;4.466;2023-07-13T07:18:51;17.38;;;3.95;;
18445;SDS011;9352;50.888;4.466;2023-07-13T07:21:18;23.83;;;4.25;;
18445;SDS011;9352;50.888;4.466;2023-07-13T07:23:49;18.02;;;3.40;;
18445;SDS011;9352;50.888;4.466;2023-07-13T07:26:15;18.85;;;3.22;;
18445;SDS011;9352;50.888;4.466;2023-07-13T07:28:42;18.30;;;3.15;;
18445;SDS011;9352;50.888;4.466;2023-07-13T07:31:10;19.83;;;3.50;;
18445;SDS011;9352;50.888;4.466;2023-07-13T07:33:37;11.10;;;3.03;;
18445;SDS011;9352;50.888;4.466;2023-07-13T07:36:04;13.05;;;3.53;;
18445;SDS011;9352;50.888;4.466;2023-07-13T07:38:31;14.07;;;3.47;;
18445;SDS011;9352;50.888;4.466;2023-07-13T07:41:02;12.25;;;4.03;;
18445;SDS011;9352;50.888;4.466;2023-07-13T07:43:29;16.60;;;3.30;;
18445;SDS011;9352;50.888;4.466;2023-07-13T07:45:57;17.58;;;3.40;;
18445;SDS011;9352;50.888;4.466;2023-07-13T07:48:23;18.40;;;4.30;;
18445;SDS011;9352;50.888;4.466;2023-07-13T07:50:50;15.30;;;3.38;;
18445;SDS011;9352;50.888;4.466;2023-07-13T07:53:18;14.45;;;3.55;;
18445;SDS011;9352;50.888;4.466;2023-07-13T07:55:44;13.32;;;3.47;;
18445;SDS011;9352;50.888;4.466;2023-07-13T07:58:14;16.20;;;3.10;;
18445;SDS011;9352;50.888;4.466;2023-07-13T08:00:41;15.77;;;3.50;;
18445;SDS011;9352;50.888;4.466;2023-07-13T08:03:07;13.95;;;3.47;;
18445;SDS011;9352;50.888;4.466;2023-07-13T08:05:35;15.15;;;3.53;;
18445;SDS011;9352;50.888;4.466;2023-07-13T08:08:02;14.23;;;3.17;;
18445;SDS011;9352;50.888;4.466;2023-07-13T08:10:29;15.50;;;3.13;;
18445;SDS011;9352;50.888;4.466;2023-07-13T08:12:56;10.15;;;3.13;;
18445;SDS011;9352;50.888;4.466;2023-07-13T08:15:24;17.95;;;3.13;;
18445;SDS011;9352;50.888;4.466;2023-07-13T08:17:51;10.50;;;3.28;;
18445;SDS011;9352;50.888;4.466;2023-07-13T08:20:18;10.68;;;3.28;;
18445;SDS011;9352;50.888;4.466;2023-07-13T08:22:45;12.57;;;3.15;;
18445;SDS011;9352;50.888;4.466;2023-07-13T08:25:12;9.27;;;2.78;;
18445;SDS011;9352;50.888;4.466;2023-07-13T08:27:39;11.18;;;3.40;;
18445;SDS011;9352;50.888;4.466;2023-07-13T08:30:06;9.43;;;2.80;;
18445;SDS011;9352;50.888;4.466;2023-07-13T08:32:36;9.77;;;2.95;;
18445;SDS011;9352;50.888;4.466;2023-07-13T08:35:04;11.35;;;3.33;;
18445;SDS011;9352;50.888;4.466;2023-07-13T08:37:31;10.00;;;3.25;;
18445;SDS011;9352;50.888;4.466;2023-07-13T08:39:58;10.93;;;3.17;;
18445;SDS011;9352;50.888;4.466;2023-07-13T08:42:31;19.27;;;2.70;;
18445;SDS011;9352;50.888;4.466;2023-07-13T08:45:06;10.88;;;3.15;;
18445;SDS011;9352;50.888;4.466;2023-07-13T08:47:40;8.23;;;2.90;;
18445;SDS011;9352;50.888;4.466;2023-07-13T08:50:12;13.70;;;3.00;;
18445;SDS011;9352;50.888;4.466;2023-07-13T08:52:43;13.93;;;3.00;;
18445;SDS011;9352;50.888;4.466;2023-07-13T08:55:11;11.80;;;3.30;;
18445;SDS011;9352;50.888;4.466;2023-07-13T08:57:41;8.20;;;3.00;;
18445;SDS011;9352;50.888;4.466;2023-07-13T09:00:10;11.15;;;2.85;;
18445;SDS011;9352;50.888;4.466;2023-07-13T09:02:42;7.53;;;2.88;;
18445;SDS011;9352;50.888;4.466;2023-07-13T09:05:14;13.55;;;3.40;;
18445;SDS011;9352;50.888;4.466;2023-07-13T09:07:55;12.55;;;2.80;;
18445;SDS011;9352;50.888;4.466;2023-07-13T09:10:32;9.68;;;2.63;;
18445;SDS011;9352;50.888;4.466;2023-07-13T09:13:11;9.27;;;2.50;;
18445;SDS011;9352;50.888;4.466;2023-07-13T09:15:47;13.32;;;3.05;;
18445;SDS011;9352;50.888;4.466;2023-07-13T09:18:18;9.70;;;3.20;;
18445;SDS011;9352;50.888;4.466;2023-07-13T09:20:50;11.98;;;2.92;;
18445;SDS011;9352;50.888;4.466;2023-07-13T09:23:21;10.32;;;2.67;;
18445;SDS011;9352;50.888;4.466;2023-07-13T09:25:49;6.60;;;2.70;;
18445;SDS011;9352;50.888;4.466;2023-07-13T09:28:22;16.10;;;3.08;;
18445;SDS011;9352;50.888;4.466;2023-07-13T09:30:51;11.20;;;2.65;;
18445;SDS011;9352;50.888;4.466;2023-07-13T09:33:23;13.10;;;2.70;;
18445;SDS011;9352;50.888;4.466;2023-07-13T09:35:54;11.95;;;2.80;;
18445;SDS011;9352;50.888;4.466;2023-07-13T09:38:22;12.57;;;2.55;;
18445;SDS011;9352;50.888;4.466;2023-07-13T09:40:58;8.20;;;2.80;;
18445;SDS011;9352;50.888;4.466;2023-07-13T09:43:34;9.68;;;2.50;;
18445;SDS011;9352;50.888;4.466;2023-07-13T09:46:01;9.00;;;2.83;;
18445;SDS011;9352;50.888;4.466;2023-07-13T09:48:34;6.63;;;2.20;;
18445;SDS011;9352;50.888;4.466;2023-07-13T09:51:06;8.80;;;2.70;;
18445;SDS011;9352;50.888;4.466;2023-07-13T09:53:39;10.48;;;3.03;;
18445;SDS011;9352;50.888;4.466;2023-07-13T09:56:14;14.60;;;3.17;;
18445;SDS011;9352;50.888;4.466;2023-07-13T09:58:45;14.65;;;2.50;;
18445;SDS011;9352;50.888;4.466;2023-07-13T10:01:12;4.30;;;2.08;;
18445;SDS011;9352;50.888;4.466;2023-07-13T10:03:51;6.53;;;2.50;;
18445;SDS011;9352;50.888;4.466;2023-07-13T10:06:21;10.95;;;2.50;;
18445;SDS011;9352;50.888;4.466;2023-07-13T10:08:49;12.48;;;2.55;;
18445;SDS011;9352;50.888;4.466;2023-07-13T10:11:18;9.02;;;2.70;;
18445;SDS011;9352;50.888;4.466;2023-07-13T10:13:49;7.32;;;2.22;;
18445;SDS011;9352;50.888;4.466;2023-07-13T10:16:19;7.68;;;2.78;;
18445;SDS011;9352;50.888;4.466;2023-07-13T10:18:48;6.65;;;2.47;;
18445;SDS011;9352;50.888;4.466;2023-07-13T10:21:19;8.63;;;2.58;;
18445;SDS011;9352;50.888;4.466;2023-07-13T10:23:49;6.05;;;2.28;;
18445;SDS011;9352;50.888;4.466;2023-07-13T10:26:20;5.25;;;2.22;;
18445;SDS011;9352;50.888;4.466;2023-07-13T10:28:51;4.82;;;2.45;;
18445;SDS011;9352;50.888;4.466;2023-07-13T10:31:22;9.10;;;2.20;;
18445;SDS011;9352;50.888;4.466;2023-07-13T10:33:51;6.03;;;2.55;;
18445;SDS011;9352;50.888;4.466;2023-07-13T10:36:20;7.85;;;2.60;;
18445;SDS011;9352;50.888;4.466;2023-07-13T10:38:57;7.35;;;2.25;;
18445;SDS011;9352;50.888;4.466;2023-07-13T10:41:26;9.45;;;2.47;;
18445;SDS011;9352;50.888;4.466;2023-07-13T10:43:56;7.75;;;2.10;;
18445;SDS011;9352;50.888;4.466;2023-07-13T10:46:24;7.05;;;2.00;;
18445;SDS011;9352;50.888;4.466;2023-07-13T10:48:56;11.93;;;2.50;;
18445;SDS011;9352;50.888;4.466;2023-07-13T10:51:27;13.25;;;2.38;;
18445;SDS011;9352;50.888;4.466;2023-07-13T10:54:10;6.60;;;2.10;;
18445;SDS011;9352;50.888;4.466;2023-07-13T10:56:41;5.85;;;1.98;;
18445;SDS011;9352;50.888;4.466;2023-07-13T10:59:11;5.05;;;2.00;;
18445;SDS011;9352;50.888;4.466;2023-07-13T11:01:41;8.05;;;2.05;;
18445;SDS011;9352;50.888;4.466;2023-07-13T11:04:16;7.57;;;2.60;;
18445;SDS011;9352;50.888;4.466;2023-07-13T11:06:47;10.95;;;2.30;;
18445;SDS011;9352;50.888;4.466;2023-07-13T11:12:06;5.90;;;2.20;;
18445;SDS011;9352;50.888;4.466;2023-07-13T11:14:41;8.90;;;2.30;;
18445;SDS011;9352;50.888;4.466;2023-07-13T11:17:33;4.50;;;2.10;;
18445;SDS011;9352;50.888;4.466;2023-07-13T11:23:09;6.78;;;2.42;;
18445;SDS011;9352;50.888;4.466;2023-07-13T11:25:53;6.00;;;1.80;;
18445;SDS011;9352;50.888;4.466;2023-07-13T11:28:21;8.02;;;1.92;;
18445;SDS011;9352;50.888;4.466;2023-07-13T11:30:59;12.90;;;2.15;;
18445;SDS011;9352;50.888;4.466;2023-07-13T11:33:56;4.55;;;2.10;;
18445;SDS011;9352;50.888;4.466;2023-07-13T11:36:28;11.55;;;2.50;;
18445;SDS011;9352;50.888;4.466;2023-07-13T11:38:59;15.50;;;2.25;;
18445;SDS011;9352;50.888;4.466;2023-07-13T11:41:29;10.52;;;2.50;;
18445;SDS011;9352;50.888;4.466;2023-07-13T11:44:06;8.10;;;1.95;;
18445;SDS011;9352;50.888;4.466;2023-07-13T11:46:37;14.98;;;2.55;;
18445;SDS011;9352;50.888;4.466;2023-07-13T11:49:04;9.70;;;2.17;;
18445;SDS011;9352;50.888;4.466;2023-07-13T11:51:34;9.43;;;2.33;;
18445;SDS011;9352;50.888;4.466;2023-07-13T11:54:03;10.95;;;2.08;;
18445;SDS011;9352;50.888;4.466;2023-07-13T11:56:39;10.40;;;2.42;;
18445;SDS011;9352;50.888;4.466;2023-07-13T11:59:07;6.50;;;2.20;;
18445;SDS011;9352;50.888;4.466;2023-07-13T12:01:42;5.20;;;2.08;;
18445;SDS011;9352;50.888;4.466;2023-07-13T12:04:11;2.85;;;2.10;;
18445;SDS011;9352;50.888;4.466;2023-07-13T12:06:49;1.92;;;1.70;;
18445;SDS011;9352;50.888;4.466;2023-07-13T12:09:25;6.35;;;2.10;;
18445;SDS011;9352;50.888;4.466;2023-07-13T12:11:56;3.08;;;1.83;;
18445;SDS011;9352;50.888;4.466;2023-07-13T12:14:25;8.95;;;1.92;;
18445;SDS011;9352;50.888;4.466;2023-07-13T12:16:52;8.45;;;2.38;;
18445;SDS011;9352;50.888;4.466;2023-07-13T12:19:20;3.28;;;1.90;;
18445;SDS011;9352;50.888;4.466;2023-07-13T12:21:53;8.38;;;2.08;;
18445;SDS011;9352;50.888;4.466;2023-07-13T12:24:21;9.05;;;2.10;;
18445;SDS011;9352;50.888;4.466;2023-07-13T12:26:52;4.75;;;1.98;;
18445;SDS011;9352;50.888;4.466;2023-07-13T12:29:20;6.53;;;2.03;;
18445;SDS011;9352;50.888;4.466;2023-07-13T12:31:48;3.53;;;1.90;;
18445;SDS011;9352;50.888;4.466;2023-07-13T12:34:18;7.10;;;2.10;;
18445;SDS011;9352;50.888;4.466;2023-07-13T12:36:47;3.42;;;1.65;;
18445;SDS011;9352;50.888;4.466;2023-07-13T12:39:18;4.57;;;2.00;;
18445;SDS011;9352;50.888;4.466;2023-07-13T12:41:47;11.18;;;2.55;;
18445;SDS011;9352;50.888;4.466;2023-07-13T12:44:16;4.78;;;2.38;;
18445;SDS011;9352;50.888;4.466;2023-07-13T12:46:56;6.40;;;2.10;;
18445;SDS011;9352;50.888;4.466;2023-07-13T12:49:26;5.15;;;2.63;;
18445;SDS011;9352;50.888;4.466;2023-07-13T12:51:58;3.30;;;2.10;;
18445;SDS011;9352;50.888;4.466;2023-07-13T12:54:29;4.85;;;2.50;;
18445;SDS011;9352;50.888;4.466;2023-07-13T12:56:56;7.47;;;2.80;;
18445;SDS011;9352;50.888;4.466;2023-07-13T12:59:29;4.75;;;2.17;;
18445;SDS011;9352;50.888;4.466;2023-07-13T13:02:01;7.25;;;2.72;;
18445;SDS011;9352;50.888;4.466;2023-07-13T13:04:29;5.80;;;2.70;;
18445;SDS011;9352;50.888;4.466;2023-07-13T13:07:03;5.15;;;2.80;;
18445;SDS011;9352;50.888;4.466;2023-07-13T13:09:33;4.45;;;2.85;;
18445;SDS011;9352;50.888;4.466;2023-07-13T13:12:00;3.60;;;2.80;;
18445;SDS011;9352;50.888;4.466;2023-07-13T13:14:26;6.32;;;2.90;;
18445;SDS011;9352;50.888;4.466;2023-07-13T13:16:53;5.63;;;3.15;;
18445;SDS011;9352;50.888;4.466;2023-07-13T13:19:21;5.88;;;2.40;;
18445;SDS011;9352;50.888;4.466;2023-07-13T13:21:50;3.63;;;2.70;;
18445;SDS011;9352;50.888;4.466;2023-07-13T13:24:19;3.85;;;2.40;;
18445;SDS011;9352;50.888;4.466;2023-07-13T13:26:48;7.22;;;2.40;;
18445;SDS011;9352;50.888;4.466;2023-07-13T13:29:18;6.55;;;2.58;;
18445;SDS011;9352;50.888;4.466;2023-07-13T13:31:46;4.22;;;2.55;;
18445;SDS011;9352;50.888;4.466;2023-07-13T13:34:14;3.92;;;2.53;;
18445;SDS011;9352;50.888;4.466;2023-07-13T13:36:42;2.60;;;2.40;;
18445;SDS011;9352;50.888;4.466;2023-07-13T13:39:15;3.83;;;2.42;;
18445;SDS011;9352;50.888;4.466;2023-07-13T13:41:46;4.18;;;2.30;;
18445;SDS011;9352;50.888;4.466;2023-07-13T13:44:15;4.57;;;2.20;;
18445;SDS011;9352;50.888;4.466;2023-07-13T13:46:43;3.40;;;1.67;;
18445;SDS011;9352;50.888;4.466;2023-07-13T13:49:13;2.80;;;1.92;;
18445;SDS011;9352;50.888;4.466;2023-07-13T13:51:42;2.03;;;1.58;;
18445;SDS011;9352;50.888;4.466;2023-07-13T13:54:10;5.68;;;1.95;;
18445;SDS011;9352;50.888;4.466;2023-07-13T13:56:38;3.50;;;1.83;;
18445;SDS011;9352;50.888;4.466;2023-07-13T13:59:07;3.03;;;1.80;;
18445;SDS011;9352;50.888;4.466;2023-07-13T14:01:35;4.72;;;1.80;;
18445;SDS011;9352;50.888;4.466;2023-07-13T14:04:02;2.30;;;1.70;;
18445;SDS011;9352;50.888;4.466;2023-07-13T14:06:30;5.38;;;1.90;;
18445;SDS011;9352;50.888;4.466;2023-07-13T14:08:57;4.05;;;1.90;;
18445;SDS011;9352;50.888;4.466;2023-07-13T14:11:25;4.13;;;1.92;;
18445;SDS011;9352;50.888;4.466;2023-07-13T14:13:53;4.70;;;2.13;;
18445;SDS011;9352;50.888;4.466;2023-07-13T14:16:24;6.40;;;2.20;;
18445;SDS011;9352;50.888;4.466;2023-07-13T14:18:55;4.05;;;1.70;;
18445;SDS011;9352;50.888;4.466;2023-07-13T14:21:25;4.72;;;1.88;;
18445;SDS011;9352;50.888;4.466;2023-07-13T14:23:53;4.85;;;2.40;;
18445;SDS011;9352;50.888;4.466;2023-07-13T14:26:21;3.40;;;1.90;;
18445;SDS011;9352;50.888;4.466;2023-07-13T14:28:51;2.58;;;1.70;;
18445;SDS011;9352;50.888;4.466;2023-07-13T14:31:20;4.72;;;2.25;;
18445;SDS011;9352;50.888;4.466;2023-07-13T14:33:48;2.35;;;2.03;;
18445;SDS011;9352;50.888;4.466;2023-07-13T14:36:20;5.32;;;3.47;;
18445;SDS011;9352;50.888;4.466;2023-07-13T14:38:52;3.38;;;1.85;;
18445;SDS011;9352;50.888;4.466;2023-07-13T14:41:20;2.58;;;1.83;;
18445;SDS011;9352;50.888;4.466;2023-07-13T14:43:47;9.35;;;1.95;;
18445;SDS011;9352;50.888;4.466;2023-07-13T14:46:18;3.80;;;2.10;;
18445;SDS011;9352;50.888;4.466;2023-07-13T14:48:53;3.17;;;2.20;;
18445;SDS011;9352;50.888;4.466;2023-07-13T14:51:27;3.80;;;1.85;;
18445;SDS011;9352;50.888;4.466;2023-07-13T14:53:54;2.38;;;1.73;;
18445;SDS011;9352;50.888;4.466;2023-07-13T14:56:21;2.47;;;1.90;;
18445;SDS011;9352;50.888;4.466;2023-07-13T14:58:48;2.40;;;1.80;;
18445;SDS011;9352;50.888;4.466;2023-07-13T15:01:15;5.15;;;2.28;;
18445;SDS011;9352;50.888;4.466;2023-07-13T15:03:43;2.92;;;1.95;;
18445;SDS011;9352;50.888;4.466;2023-07-13T15:06:12;5.53;;;1.80;;
18445;SDS011;9352;50.888;4.466;2023-07-13T15:08:41;3.10;;;1.77;;